Latest Weather Observations for Yeppoon

IDQ60801

Issued at 7:22 am EST Wednesday 23 October 2019 (issued every 10 minutes, with the page automatically refreshed every 10 minutes)

About weather observations | Map of weather stations | Latest weather observations for QLD | Other Formats
Station Details ID: 033294 Name: YEPPOON THE ESPLANADE Lat: -23.14 Lon: 150.75 Height: 5.5 m
Data from the previous 72 hours. | See also: Recent months at Yeppoon
Date/Time
EST
Temp
°C
App
Temp
°C
Dew
Point
°C
Rel
Hum
%
Delta-T
°C
Wind Press
QNH
hPa
Press
MSL
hPa
Rain since
9am
mm
Dir  Spd
km/h
Gust
km/h
Spd
kts
Gust
kts
23/07:00am 22.5 18.1 13.0 55 5.4 ESE 28 37 15 20 1021.8 1021.8 0.0
23/06:30am 22.6 17.8 13.9 58 5.1 E 32 44 17 24 1021.5 1021.5 0.0
23/06:00am 22.4 17.6 14.5 61 4.6 E 33 39 18 21 1021.1 1021.1 0.0
23/05:30am 22.1 18.5 15.2 65 4.1 ESE 28 37 15 20 1020.9 1020.9 0.0
23/05:00am 22.1 17.6 15.0 64 4.2 E 32 41 17 22 1020.6 1020.6 0.0
23/04:30am 22.2 20.0 16.0 68 3.7 ESE 22 32 12 17 1020.4 1020.4 0.0
23/04:00am 22.2 19.3 16.0 68 3.7 E 26 35 14 19 1020.4 1020.4 0.0
23/03:30am 22.0 18.2 14.6 63 4.4 E 28 33 15 18 1020.3 1020.3 0.0
23/03:00am 22.1 18.0 15.0 64 4.2 E 30 37 16 20 1020.3 1020.3 0.0
23/02:30am 22.0 19.2 15.4 66 3.9 E 24 33 13 18 1020.4 1020.4 0.0
23/02:00am 22.1 18.9 15.2 65 4.1 E 26 32 14 17 1020.7 1020.7 0.0
23/01:30am 22.2 19.0 15.3 65 4.1 E 26 35 14 19 1021.0 1021.0 0.0
23/01:00am 22.3 18.8 15.6 66 4.0 E 28 35 15 19 1021.3 1021.3 0.0
23/12:30am 22.4 18.5 15.5 65 4.1 E 30 35 16 19 1021.6 1021.6 0.0
23/12:00am 22.5 18.7 15.8 66 4.0 E 30 39 16 21 1022.0 1022.0 0.0
 
Date/Time
EST
Temp
°C
App
Temp
°C
Dew
Point
°C
Rel
Hum
%
Delta-T
°C
Wind Press
QNH
hPa
Press
MSL
hPa
Rain since
9am
mm
Dir  Spd
km/h
Gust
km/h
Spd
kts
Gust
kts
22/11:30pm 22.6 18.6 16.2 67 3.9 E 32 39 17 21 1022.3 1022.3 0.0
22/11:00pm 22.5 18.2 15.4 64 4.2 E 32 37 17 20 1022.5 1022.5 0.0
22/10:30pm 22.6 18.0 15.2 63 4.4 E 33 43 18 23 1022.7 1022.7 0.0
22/10:00pm 22.6 18.2 15.7 65 4.1 E 33 44 18 24 1022.7 1022.7 0.0
22/09:30pm 22.6 18.2 15.2 63 4.4 E 32 41 17 22 1022.6 1022.6 0.0
22/09:00pm 22.8 19.4 15.9 65 4.1 E 28 39 15 21 1022.5 1022.5 0.0
22/08:30pm 22.8 18.7 15.9 65 4.2 E 32 39 17 21 1022.4 1022.4 0.0
22/08:00pm 22.7 18.2 15.3 63 4.4 E 33 41 18 22 1022.1 1022.1 0.0
22/07:30pm 22.8 18.7 15.9 65 4.2 E 32 35 17 19 1021.8 1021.8 0.0
22/07:00pm 22.9 19.2 16.0 65 4.2 E 30 35 16 19 1021.6 1021.6 0.0
22/06:30pm 23.0 18.8 15.6 63 4.4 E 32 39 17 21 1021.2 1021.2 0.0
22/06:00pm 22.9 18.7 15.7 64 4.3 E 32 39 17 21 1020.7 1020.7 0.0
22/05:30pm 23.2 19.3 16.5 66 4.1 E 32 35 17 19 1020.3 1020.3 0.0
22/05:00pm 23.4 19.6 16.7 66 4.1 E 32 37 17 20 1019.9 1019.9 0.0
22/04:30pm 23.3 19.2 16.4 65 4.2 ENE 33 39 18 21 1019.6 1019.6 0.0
22/04:00pm 23.6 19.9 16.9 66 4.1 E 32 35 17 19 1019.4 1019.4 0.0
22/03:30pm 24.0 20.9 17.5 67 4.0 E 30 35 16 19 1019.2 1019.2 0.0
22/03:00pm 24.1 21.4 17.6 67 4.0 E 28 35 15 19 1019.3 1019.3 0.0
22/02:30pm 24.5 21.3 16.2 60 5.1 E 28 35 15 19 1019.7 1019.7 0.0
22/02:00pm 24.9 21.8 16.6 60 5.1 ESE 28 39 15 21 1020.1 1020.1 0.0
22/01:30pm 24.9 22.1 17.4 63 4.7 ESE 28 39 15 21 1020.5 1020.5 0.0
22/01:00pm 25.1 22.7 17.3 62 4.8 ESE 26 37 14 20 1020.8 1020.8 0.0
22/12:30pm 24.9 22.7 16.9 61 4.9 ESE 24 35 13 19 1021.4 1021.4 0.0
22/12:00pm 24.8 21.7 16.5 60 5.1 ESE 28 37 15 20 1021.5 1021.5 0.0
22/11:30am 24.8 22.1 16.5 60 5.1 ESE 26 35 14 19 1022.0 1022.0 0.0
22/11:00am 24.8 22.8 16.5 60 5.1 ESE 22 35 12 19 1022.2 1022.2 0.0
22/10:30am 24.9 22.8 17.1 62 4.8 ESE 24 32 13 17 1022.4 1022.4 0.0
22/10:00am 24.4 22.4 16.4 61 4.9 SE 22 32 12 17 1022.9 1022.9 0.0
22/09:30am 23.9 22.4 16.7 64 4.4 SE 20 33 11 18 1023.0 1023.0 0.0
22/09:00am 23.0 20.7 15.8 64 4.3 SE 22 30 12 16 1023.2 1023.2 0.0
22/08:30am 22.6 19.6 15.9 66 4.0 SSE 26 35 14 19 1023.1 1023.1 0.0
22/08:00am 22.5 20.4 16.1 67 3.9 SE 22 35 12 19 1022.8 1022.8 0.0
22/07:30am 22.1 19.6 16.1 69 3.6 SSE 24 35 13 19 1022.6 1022.6 0.0
22/07:00am 21.7 20.5 16.0 70 3.4 SSE 17 28 9 15 1022.3 1022.3 0.0
22/06:30am 20.2 19.9 15.4 74 2.8 S 11 17 6 9 1022.2 1022.2 0.0
22/06:00am 19.4 19.0 15.3 77 2.4 SSE 11 15 6 8 1021.9 1021.9 0.0
22/05:30am 20.2 19.7 16.0 77 2.5 SSE 13 22 7 12 1021.7 1021.7 0.0
22/05:00am 20.3 19.4 15.9 76 2.6 SSE 15 22 8 12 1021.4 1021.4 0.0
22/04:30am 20.7 19.4 15.7 73 3.0 SSE 17 22 9 12 1021.1 1021.1 0.0
22/04:00am 22.3 19.7 16.8 71 3.4 ESE 26 41 14 22 1020.8 1020.8 0.0
22/03:30am 22.2 19.5 16.5 70 3.5 ESE 26 35 14 19 1020.8 1020.8 0.0
22/03:00am 22.3 18.7 16.3 69 3.6 ESE 30 43 16 23 1020.7 1020.7 0.0
22/02:30am 22.4 19.4 16.9 71 3.4 ESE 28 43 15 23 1020.8 1020.8 0.0
22/02:00am 22.2 18.9 16.0 68 3.7 ESE 28 41 15 22 1021.0 1021.0 0.0
22/01:30am 22.3 19.5 16.3 69 3.6 ESE 26 35 14 19 1021.3 1021.3 0.0
22/01:00am 22.5 19.6 17.0 71 3.4 ESE 28 43 15 23 1021.6 1021.6 0.0
22/12:30am 22.4 19.4 16.7 70 3.5 ESE 28 43 15 23 1021.8 1021.8 0.0
22/12:00am 22.5 19.9 16.8 70 3.5 ESE 26 41 14 22 1022.2 1022.2 0.0
 
Date/Time
EST
Temp
°C
App
Temp
°C
Dew
Point
°C
Rel
Hum
%
Delta-T
°C
Wind Press
QNH
hPa
Press
MSL
hPa
Rain since
9am
mm
Dir  Spd
km/h
Gust
km/h
Spd
kts
Gust
kts
21/11:30pm 22.7 19.5 17.2 71 3.4 ESE 30 44 16 24 1022.5 1022.5 0.0
21/11:00pm 22.8 19.1 17.0 70 3.5 ESE 32 46 17 25 1022.5 1022.5 0.0
21/10:30pm 22.9 18.8 17.4 71 3.4 ESE 35 46 19 25 1022.4 1022.4 0.0
21/10:11pm 22.9 19.8 17.6 72 3.3 ESE 30 48 16 26 1022.2 1022.2 0.0
21/10:00pm 22.8 19.8 17.7 73 3.2 ESE 30 44 16 24 1022.2 1022.2 0.0
21/09:30pm 22.8 19.4 17.7 73 3.2 ESE 32 44 17 24 1022.4 1022.4 0.0
21/09:00pm 23.1 20.5 18.6 76 2.8 ESE 30 41 16 22 1022.1 1022.1 0.0
21/08:30pm 23.0 20.3 18.5 76 2.8 ESE 30 41 16 22 1021.5 1021.5 0.0
21/08:00pm 22.3 19.5 18.1 77 2.6 E 30 37 16 20 1021.2 1021.2 0.0
21/07:30pm 21.6 20.3 17.2 76 2.7 ESE 20 32 11 17 1022.1 1022.1 0.0
21/07:00pm 22.0 19.2 18.2 79 2.4 ESE 30 46 16 25 1021.7 1021.7 0.0
21/06:57pm 22.2 20.2 18.2 78 2.5 ESE 26 46 14 25 1021.7 1021.7 0.0
21/06:30pm 22.7 20.1 16.0 66 4.0 SE 24 37 13 20 1021.2 1021.2 0.0
21/06:00pm 23.8 21.0 18.2 71 3.5 ESE 30 43 16 23 1020.5 1020.5 0.0
21/05:30pm 24.0 21.5 18.0 69 3.8 ESE 28 41 15 22 1020.3 1020.3 0.0
21/05:00pm 24.0 20.9 17.5 67 4.0 ESE 30 41 16 22 1019.8 1019.8 0.0
21/04:30pm 24.5 20.8 17.5 65 4.4 E 33 39 18 21 1019.4 1019.4 0.0
21/04:00pm 24.5 21.5 18.7 70 3.7 E 32 37 17 20 1018.9 1018.9 0.0
21/03:30pm 25.1 22.6 18.1 65 4.4 E 28 35 15 19 1018.9 1018.9 0.0
21/03:00pm 25.1 22.6 18.1 65 4.4 ESE 28 37 15 20 1019.1 1019.1 0.0
21/02:30pm 25.6 22.8 18.3 64 4.6 ESE 30 39 16 21 1019.3 1019.3 0.0
21/02:00pm 25.6 23.0 17.8 62 4.9 ESE 28 39 15 21 1019.7 1019.7 0.0
21/01:30pm 25.6 22.7 18.0 63 4.8 ESE 30 39 16 21 1020.0 1020.0 0.0
21/01:00pm 25.9 22.5 17.8 61 5.1 ESE 32 41 17 22 1020.2 1020.2 0.0
21/12:30pm 25.8 23.1 18.5 64 4.6 ESE 30 41 16 22 1020.4 1020.4 0.0
21/12:00pm 25.6 23.4 17.8 62 4.9 ESE 26 35 14 19 1020.7 1020.7 0.0
21/11:30am 25.6 23.0 17.8 62 4.9 ESE 28 39 15 21 1021.1 1021.1 0.0
21/11:00am 25.9 22.8 17.5 59 5.2 ESE 30 44 16 24 1021.2 1021.2 0.0
21/10:30am 24.7 23.2 18.6 69 3.9 ESE 24 35 13 19 1021.3 1021.3 0.0
21/10:00am 24.8 22.9 18.5 68 4.0 ESE 26 33 14 18 1021.6 1021.6 0.0
21/09:30am 25.1 23.3 18.8 68 4.0 ESE 26 39 14 21 1021.7 1021.7 0.0
21/09:00am 24.3 22.8 18.5 70 3.7 ESE 24 35 13 19 1021.7 1021.7 0.0
21/08:30am 24.0 21.7 18.4 71 3.5 ESE 28 39 15 21 1021.4 1021.4 0.0
21/08:00am 24.0 21.6 18.2 70 3.6 ESE 28 39 15 21 1021.1 1021.1 0.0
21/07:30am 23.4 22.7 18.7 75 3.0 SE 20 30 11 16 1020.9 1020.9 0.0
21/07:00am 23.2 22.5 18.3 74 3.1 SE 19 28 10 15 1020.5 1020.5 0.0
21/06:30am 23.2 22.5 18.3 74 3.1 SE 19 35 10 19 1020.3 1020.3 0.0
21/06:00am 22.4 21.4 18.0 76 2.7 SE 20 32 11 17 1020.0 1020.0 0.0
21/05:30am 22.2 21.1 17.8 76 2.7 SE 20 32 11 17 1019.8 1019.8 0.0
21/05:00am 22.2 21.3 17.8 76 2.7 SE 19 28 10 15 1019.3 1019.3 0.0
21/04:30am 22.3 21.0 18.1 77 2.6 SE 22 32 12 17 1018.9 1018.9 0.0
21/04:00am 22.6 21.6 17.9 75 2.9 SE 20 30 11 16 1018.6 1018.6 0.0
21/03:30am 23.2 21.2 18.3 74 3.1 SE 26 39 14 21 1018.3 1018.3 0.0
21/03:00am 23.2 21.1 17.2 69 3.7 ESE 24 35 13 19 1018.2 1018.2 0.0
21/02:30am 23.3 21.3 18.2 73 3.2 ESE 26 35 14 19 1018.2 1018.2 0.0
21/02:00am 23.2 21.8 18.7 76 2.8 ESE 24 35 13 19 1018.0 1018.0 0.0
21/01:30am 23.6 21.0 17.8 70 3.6 ESE 28 37 15 20 1018.0 1018.0 0.0
21/01:00am 23.4 22.3 18.7 75 3.0 ESE 22 33 12 18 1018.2 1018.2 0.0
21/12:30am 23.5 22.3 19.2 77 2.7 ESE 24 33 13 18 1018.4 1018.4 0.0
21/12:00am 24.0 23.1 19.9 78 2.6 ESE 24 35 13 19 1018.6 1018.6 0.0
 
Date/Time
EST
Temp
°C
App
Temp
°C
Dew
Point
°C
Rel
Hum
%
Delta-T
°C
Wind Press
QNH
hPa
Press
MSL
hPa
Rain since
9am
mm
Dir  Spd
km/h
Gust
km/h
Spd
kts
Gust
kts
20/11:30pm 23.7 23.8 19.2 76 2.9 ESE 17 24 9 13 1018.5 1018.5 0.0
20/11:00pm 23.8 24.4 20.3 81 2.3 ESE 17 22 9 12 1018.6 1018.6 0.0
20/10:30pm 22.2 24.3 20.1 88 1.4 ESE 9 17 5 9 1018.6 1018.6 0.0
20/10:00pm 21.8 23.8 19.2 85 1.6 ESE 7 9 4 5 1018.5 1018.5 0.0
20/09:30pm 24.1 25.6 20.6 81 2.3 ESE 13 19 7 10 1018.2 1018.2 0.0
20/09:00pm 24.0 25.5 20.5 81 2.3 E 13 17 7 9 1017.8 1017.8 0.0
20/08:30pm 24.2 25.9 20.9 82 2.2 ENE 13 15 7 8 1017.5 1017.5 0.0
20/08:00pm 24.3 26.4 21.0 82 2.2 ENE 11 15 6 8 1017.1 1017.1 0.0
20/07:30pm 24.3 25.4 20.4 79 2.5 ENE 15 19 8 10 1016.8 1016.8 0.0
20/07:00pm 24.4 26.0 20.7 80 2.4 NE 13 17 7 9 1016.4 1016.4 0.0
20/06:30pm 24.6 26.2 20.7 79 2.6 NE 13 15 7 8 1015.9 1015.9 0.0
20/06:00pm 24.7 26.2 20.6 78 2.7 NE 13 17 7 9 1015.4 1015.4 0.0
20/05:30pm 25.0 26.3 20.9 78 2.7 NE 15 22 8 12 1015.1 1015.1 0.0
20/05:00pm 25.7 26.6 21.6 78 2.7 NE 19 22 10 12 1014.7 1014.7 0.0
20/04:30pm 26.0 26.4 19.9 69 4.0 NE 17 24 9 13 1014.5 1014.5 0.0
20/04:00pm 26.7 25.8 19.1 63 4.9 ENE 22 26 12 14 1014.3 1014.3 0.0
20/03:30pm 26.9 24.6 15.6 50 6.9 ENE 22 26 12 14 1014.2 1014.2 0.0
20/03:00pm 27.5 26.0 16.8 52 6.7 NE 20 24 11 13 1014.3 1014.3 0.0
20/02:30pm 27.8 27.3 17.9 54 6.3 ENE 17 22 9 12 1014.5 1014.5 0.0
20/02:00pm 27.8 27.7 17.9 54 6.3 NE 15 19 8 10 1014.6 1014.6 0.0
20/01:30pm 27.8 29.7 20.6 65 4.7 NE 11 15 6 8 1014.8 1014.8 0.0
20/01:00pm 27.5 27.7 19.3 61 5.3 ENE 17 20 9 11 1015.1 1015.1 0.0
20/12:30pm 27.1 28.2 20.4 66 4.4 ENE 15 17 8 9 1015.5 1015.5 0.0
20/12:00pm 27.0 27.5 20.1 66 4.5 ENE 17 17 9 9 1015.8 1015.8 0.0
20/11:30am 26.8 27.2 19.9 66 4.5 ENE 17 20 9 11 1016.0 1016.0 0.0
20/11:00am 26.6 27.8 20.7 70 3.9 ENE 15 19 8 10 1016.3 1016.3 0.0
20/10:30am 26.1 27.2 21.3 75 3.2 ENE 17 19 9 10 1016.6 1016.6 0.0
20/10:00am 25.8 27.4 20.8 74 3.3 NE 13 15 7 8 1016.7 1016.7 0.0
20/09:30am 25.4 27.1 20.9 76 3.0 NE 13 15 7 8 1016.8 1016.8 0.0
20/09:00am 25.0 26.9 20.5 76 2.9 NE 11 13 6 7 1017.1 1017.1 0.0
20/08:30am 24.8 26.9 20.9 79 2.6 N 11 13 6 7 1017.2 1017.2 0.0
20/08:00am 24.2 26.4 20.3 79 2.5 WNW 9 11 5 6 1017.1 1017.1 0.0
20/07:30am 23.6 26.1 19.9 80 2.4 W 6 7 3 4 1016.9 1016.9 0.0

Other formats

Comma delimited format used in spreadsheet applications
http://www.bom.gov.au/fwo/IDQ60801/IDQ60801.94373.axf

JavaScript Object Notation format (JSON) in row-major order
http://www.bom.gov.au/fwo/IDQ60801/IDQ60801.94373.json

Data quality

Most of these data are generated automatically and are frequently updated. Quality checks on data are not normally performed. It is possible for incorrect values to appear. Refer to information at About Latest Weather Observations and please check the disclaimer before using these data.